sensor_id;sensor_type;location;lat;lon;timestamp;P1;durP1;ratioP1;P2;durP2;ratioP2
549;SDS011;20066;48.764;9.176;2023-02-19T00:01:44;4.43;;;2.40;;
549;SDS011;20066;48.764;9.176;2023-02-19T00:04:13;4.17;;;2.40;;
549;SDS011;20066;48.764;9.176;2023-02-19T00:06:43;5.80;;;2.40;;
549;SDS011;20066;48.764;9.176;2023-02-19T00:09:13;4.17;;;2.70;;
549;SDS011;20066;48.764;9.176;2023-02-19T00:11:42;5.07;;;2.40;;
549;SDS011;20066;48.764;9.176;2023-02-19T00:14:13;3.90;;;2.53;;
549;SDS011;20066;48.764;9.176;2023-02-19T00:16:42;3.50;;;2.10;;
549;SDS011;20066;48.764;9.176;2023-02-19T00:19:11;2.53;;;1.63;;
549;SDS011;20066;48.764;9.176;2023-02-19T00:21:40;4.70;;;2.63;;
549;SDS011;20066;48.764;9.176;2023-02-19T00:24:10;3.03;;;1.80;;
549;SDS011;20066;48.764;9.176;2023-02-19T00:26:40;3.00;;;1.90;;
549;SDS011;20066;48.764;9.176;2023-02-19T00:29:08;2.93;;;1.90;;
549;SDS011;20066;48.764;9.176;2023-02-19T00:31:39;2.60;;;1.70;;
549;SDS011;20066;48.764;9.176;2023-02-19T00:34:08;3.10;;;2.10;;
549;SDS011;20066;48.764;9.176;2023-02-19T00:36:37;5.40;;;2.07;;
549;SDS011;20066;48.764;9.176;2023-02-19T00:39:06;3.27;;;2.10;;
549;SDS011;20066;48.764;9.176;2023-02-19T00:41:36;3.83;;;1.90;;
549;SDS011;20066;48.764;9.176;2023-02-19T00:44:05;3.27;;;1.97;;
549;SDS011;20066;48.764;9.176;2023-02-19T00:46:34;4.37;;;2.03;;
549;SDS011;20066;48.764;9.176;2023-02-19T00:49:04;3.83;;;1.67;;
549;SDS011;20066;48.764;9.176;2023-02-19T00:51:34;5.10;;;1.83;;
549;SDS011;20066;48.764;9.176;2023-02-19T00:54:03;3.60;;;1.97;;
549;SDS011;20066;48.764;9.176;2023-02-19T00:56:39;2.20;;;1.40;;
549;SDS011;20066;48.764;9.176;2023-02-19T00:59:07;4.77;;;1.80;;
549;SDS011;20066;48.764;9.176;2023-02-19T01:01:35;3.80;;;1.80;;
549;SDS011;20066;48.764;9.176;2023-02-19T01:04:03;5.40;;;1.17;;
549;SDS011;20066;48.764;9.176;2023-02-19T01:06:32;3.13;;;1.90;;
549;SDS011;20066;48.764;9.176;2023-02-19T01:09:01;4.70;;;2.03;;
549;SDS011;20066;48.764;9.176;2023-02-19T01:11:30;2.93;;;1.63;;
549;SDS011;20066;48.764;9.176;2023-02-19T01:14:00;2.90;;;1.70;;
549;SDS011;20066;48.764;9.176;2023-02-19T01:16:28;2.80;;;1.63;;
549;SDS011;20066;48.764;9.176;2023-02-19T01:18:56;3.53;;;1.87;;
549;SDS011;20066;48.764;9.176;2023-02-19T01:21:26;3.43;;;1.40;;
549;SDS011;20066;48.764;9.176;2023-02-19T01:23:56;2.80;;;1.80;;
549;SDS011;20066;48.764;9.176;2023-02-19T01:26:25;2.13;;;1.50;;
549;SDS011;20066;48.764;9.176;2023-02-19T01:28:54;6.27;;;2.40;;
549;SDS011;20066;48.764;9.176;2023-02-19T01:31:23;3.30;;;1.77;;
549;SDS011;20066;48.764;9.176;2023-02-19T01:33:52;2.23;;;1.60;;
549;SDS011;20066;48.764;9.176;2023-02-19T01:36:22;5.30;;;1.57;;
549;SDS011;20066;48.764;9.176;2023-02-19T01:38:50;3.03;;;1.80;;
549;SDS011;20066;48.764;9.176;2023-02-19T01:41:19;3.00;;;1.60;;
549;SDS011;20066;48.764;9.176;2023-02-19T01:43:55;4.83;;;2.50;;
549;SDS011;20066;48.764;9.176;2023-02-19T01:46:27;3.63;;;1.60;;
549;SDS011;20066;48.764;9.176;2023-02-19T01:48:58;2.50;;;1.45;;
549;SDS011;20066;48.764;9.176;2023-02-19T01:51:30;2.40;;;1.53;;
549;SDS011;20066;48.764;9.176;2023-02-19T01:54:00;3.20;;;1.83;;
549;SDS011;20066;48.764;9.176;2023-02-19T01:56:29;2.53;;;1.67;;
549;SDS011;20066;48.764;9.176;2023-02-19T01:58:59;3.35;;;1.92;;
549;SDS011;20066;48.764;9.176;2023-02-19T02:01:29;2.53;;;1.30;;
549;SDS011;20066;48.764;9.176;2023-02-19T02:03:58;3.00;;;1.77;;
549;SDS011;20066;48.764;9.176;2023-02-19T02:06:27;3.13;;;1.50;;
549;SDS011;20066;48.764;9.176;2023-02-19T02:08:58;2.33;;;1.20;;
549;SDS011;20066;48.764;9.176;2023-02-19T02:11:45;3.70;;;1.57;;
549;SDS011;20066;48.764;9.176;2023-02-19T02:14:14;2.63;;;1.50;;
549;SDS011;20066;48.764;9.176;2023-02-19T02:16:48;2.90;;;1.67;;
549;SDS011;20066;48.764;9.176;2023-02-19T02:19:27;2.40;;;1.53;;
549;SDS011;20066;48.764;9.176;2023-02-19T02:22:01;3.40;;;1.80;;
549;SDS011;20066;48.764;9.176;2023-02-19T02:24:37;4.00;;;1.50;;
549;SDS011;20066;48.764;9.176;2023-02-19T02:27:21;8.50;;;1.40;;
549;SDS011;20066;48.764;9.176;2023-02-19T02:32:57;2.42;;;1.60;;
549;SDS011;20066;48.764;9.176;2023-02-19T02:35:31;2.85;;;1.70;;
549;SDS011;20066;48.764;9.176;2023-02-19T02:38:06;4.25;;;2.13;;
549;SDS011;20066;48.764;9.176;2023-02-19T02:40:38;3.78;;;1.67;;
549;SDS011;20066;48.764;9.176;2023-02-19T02:43:09;2.10;;;1.60;;
549;SDS011;20066;48.764;9.176;2023-02-19T02:45:39;3.20;;;1.70;;
549;SDS011;20066;48.764;9.176;2023-02-19T02:50:57;2.72;;;1.80;;
549;SDS011;20066;48.764;9.176;2023-02-19T02:53:31;2.67;;;1.63;;
549;SDS011;20066;48.764;9.176;2023-02-19T02:56:20;2.38;;;1.50;;
549;SDS011;20066;48.764;9.176;2023-02-19T02:58:51;2.00;;;1.42;;
549;SDS011;20066;48.764;9.176;2023-02-19T03:01:22;2.30;;;1.50;;
549;SDS011;20066;48.764;9.176;2023-02-19T03:04:11;3.55;;;1.45;;
549;SDS011;20066;48.764;9.176;2023-02-19T03:06:45;1.90;;;1.27;;
549;SDS011;20066;48.764;9.176;2023-02-19T03:09:16;2.53;;;1.40;;
549;SDS011;20066;48.764;9.176;2023-02-19T03:11:56;2.05;;;1.33;;
549;SDS011;20066;48.764;9.176;2023-02-19T03:14:47;2.13;;;1.33;;
549;SDS011;20066;48.764;9.176;2023-02-19T03:17:37;2.45;;;1.40;;
549;SDS011;20066;48.764;9.176;2023-02-19T03:20:26;2.60;;;1.63;;
549;SDS011;20066;48.764;9.176;2023-02-19T03:22:56;2.92;;;1.80;;
549;SDS011;20066;48.764;9.176;2023-02-19T03:25:28;3.20;;;1.85;;
549;SDS011;20066;48.764;9.176;2023-02-19T03:28:16;2.00;;;1.30;;
549;SDS011;20066;48.764;9.176;2023-02-19T03:31:07;2.35;;;1.38;;
549;SDS011;20066;48.764;9.176;2023-02-19T03:33:40;3.72;;;1.67;;
549;SDS011;20066;48.764;9.176;2023-02-19T03:36:11;3.05;;;1.35;;
549;SDS011;20066;48.764;9.176;2023-02-19T03:38:42;1.92;;;1.20;;
549;SDS011;20066;48.764;9.176;2023-02-19T03:41:15;2.35;;;1.60;;
549;SDS011;20066;48.764;9.176;2023-02-19T03:43:55;1.92;;;1.20;;
549;SDS011;20066;48.764;9.176;2023-02-19T03:46:32;2.40;;;1.73;;
549;SDS011;20066;48.764;9.176;2023-02-19T03:49:12;5.00;;;1.40;;
549;SDS011;20066;48.764;9.176;2023-02-19T03:51:49;3.22;;;1.60;;
549;SDS011;20066;48.764;9.176;2023-02-19T03:54:21;2.63;;;1.58;;
549;SDS011;20066;48.764;9.176;2023-02-19T03:56:57;2.20;;;1.50;;
549;SDS011;20066;48.764;9.176;2023-02-19T03:59:31;3.30;;;1.83;;
549;SDS011;20066;48.764;9.176;2023-02-19T04:02:08;2.30;;;1.60;;
549;SDS011;20066;48.764;9.176;2023-02-19T04:04:42;2.78;;;1.60;;
549;SDS011;20066;48.764;9.176;2023-02-19T04:07:15;1.83;;;1.25;;
549;SDS011;20066;48.764;9.176;2023-02-19T04:09:44;2.90;;;1.27;;
549;SDS011;20066;48.764;9.176;2023-02-19T04:12:15;3.75;;;1.40;;
549;SDS011;20066;48.764;9.176;2023-02-19T04:14:45;2.33;;;1.15;;
549;SDS011;20066;48.764;9.176;2023-02-19T04:17:21;2.10;;;1.20;;
549;SDS011;20066;48.764;9.176;2023-02-19T04:19:54;2.50;;;1.20;;
549;SDS011;20066;48.764;9.176;2023-02-19T04:22:26;3.05;;;1.30;;
549;SDS011;20066;48.764;9.176;2023-02-19T04:24:55;2.05;;;1.25;;
549;SDS011;20066;48.764;9.176;2023-02-19T04:27:23;1.55;;;1.00;;
549;SDS011;20066;48.764;9.176;2023-02-19T04:29:51;1.40;;;1.08;;
549;SDS011;20066;48.764;9.176;2023-02-19T04:32:19;1.73;;;1.00;;
549;SDS011;20066;48.764;9.176;2023-02-19T04:34:47;1.75;;;0.93;;
549;SDS011;20066;48.764;9.176;2023-02-19T04:37:16;2.13;;;1.10;;
549;SDS011;20066;48.764;9.176;2023-02-19T04:39:44;1.55;;;1.00;;
549;SDS011;20066;48.764;9.176;2023-02-19T04:42:12;1.80;;;1.02;;
549;SDS011;20066;48.764;9.176;2023-02-19T04:44:40;2.50;;;1.17;;
549;SDS011;20066;48.764;9.176;2023-02-19T04:47:08;1.48;;;0.80;;
549;SDS011;20066;48.764;9.176;2023-02-19T04:49:36;0.98;;;0.65;;
549;SDS011;20066;48.764;9.176;2023-02-19T04:52:04;2.08;;;0.70;;
549;SDS011;20066;48.764;9.176;2023-02-19T04:54:33;1.00;;;0.63;;
549;SDS011;20066;48.764;9.176;2023-02-19T04:57:01;1.80;;;0.70;;
549;SDS011;20066;48.764;9.176;2023-02-19T04:59:29;1.30;;;0.80;;
549;SDS011;20066;48.764;9.176;2023-02-19T05:01:56;2.38;;;1.00;;
549;SDS011;20066;48.764;9.176;2023-02-19T05:04:24;1.70;;;0.90;;
549;SDS011;20066;48.764;9.176;2023-02-19T05:06:52;1.23;;;0.75;;
549;SDS011;20066;48.764;9.176;2023-02-19T05:09:20;1.03;;;0.60;;
549;SDS011;20066;48.764;9.176;2023-02-19T05:11:49;1.20;;;0.70;;
549;SDS011;20066;48.764;9.176;2023-02-19T05:14:17;1.08;;;0.60;;
549;SDS011;20066;48.764;9.176;2023-02-19T05:16:45;1.00;;;0.60;;
549;SDS011;20066;48.764;9.176;2023-02-19T05:19:13;1.02;;;0.55;;
549;SDS011;20066;48.764;9.176;2023-02-19T05:21:41;1.33;;;0.60;;
549;SDS011;20066;48.764;9.176;2023-02-19T05:24:08;1.33;;;0.60;;
549;SDS011;20066;48.764;9.176;2023-02-19T05:26:36;1.02;;;0.55;;
549;SDS011;20066;48.764;9.176;2023-02-19T05:29:05;1.00;;;0.68;;
549;SDS011;20066;48.764;9.176;2023-02-19T05:31:33;1.30;;;0.60;;
549;SDS011;20066;48.764;9.176;2023-02-19T05:34:01;1.00;;;0.50;;
549;SDS011;20066;48.764;9.176;2023-02-19T05:36:29;1.42;;;0.80;;
549;SDS011;20066;48.764;9.176;2023-02-19T05:38:57;1.55;;;0.93;;
549;SDS011;20066;48.764;9.176;2023-02-19T05:41:26;0.80;;;0.40;;
549;SDS011;20066;48.764;9.176;2023-02-19T05:43:55;0.70;;;0.40;;
549;SDS011;20066;48.764;9.176;2023-02-19T05:46:26;0.80;;;0.40;;
549;SDS011;20066;48.764;9.176;2023-02-19T05:48:55;1.23;;;0.40;;
549;SDS011;20066;48.764;9.176;2023-02-19T05:51:25;0.80;;;0.40;;
549;SDS011;20066;48.764;9.176;2023-02-19T05:53:53;0.80;;;0.50;;
549;SDS011;20066;48.764;9.176;2023-02-19T05:56:23;1.13;;;0.40;;
549;SDS011;20066;48.764;9.176;2023-02-19T05:58:56;1.00;;;0.40;;
549;SDS011;20066;48.764;9.176;2023-02-19T06:01:27;0.82;;;0.45;;
549;SDS011;20066;48.764;9.176;2023-02-19T06:03:56;0.75;;;0.40;;
549;SDS011;20066;48.764;9.176;2023-02-19T06:06:24;1.20;;;0.50;;
549;SDS011;20066;48.764;9.176;2023-02-19T06:08:58;1.90;;;0.40;;
549;SDS011;20066;48.764;9.176;2023-02-19T06:11:26;2.08;;;0.65;;
549;SDS011;20066;48.764;9.176;2023-02-19T06:13:55;0.80;;;0.40;;
549;SDS011;20066;48.764;9.176;2023-02-19T06:16:23;1.05;;;0.45;;
549;SDS011;20066;48.764;9.176;2023-02-19T06:18:52;1.02;;;0.50;;
549;SDS011;20066;48.764;9.176;2023-02-19T06:21:20;1.33;;;0.88;;
549;SDS011;20066;48.764;9.176;2023-02-19T06:23:48;0.80;;;0.40;;
549;SDS011;20066;48.764;9.176;2023-02-19T06:26:17;0.80;;;0.40;;
549;SDS011;20066;48.764;9.176;2023-02-19T06:28:47;1.10;;;0.50;;
549;SDS011;20066;48.764;9.176;2023-02-19T06:31:16;0.90;;;0.40;;
549;SDS011;20066;48.764;9.176;2023-02-19T06:33:45;0.80;;;0.40;;
549;SDS011;20066;48.764;9.176;2023-02-19T06:36:21;1.10;;;0.50;;
549;SDS011;20066;48.764;9.176;2023-02-19T06:38:49;0.80;;;0.50;;
549;SDS011;20066;48.764;9.176;2023-02-19T06:41:17;1.20;;;0.60;;
549;SDS011;20066;48.764;9.176;2023-02-19T06:43:45;0.98;;;0.40;;
549;SDS011;20066;48.764;9.176;2023-02-19T06:46:13;1.10;;;0.40;;
549;SDS011;20066;48.764;9.176;2023-02-19T06:48:42;0.90;;;0.40;;
549;SDS011;20066;48.764;9.176;2023-02-19T06:51:32;1.02;;;0.50;;
549;SDS011;20066;48.764;9.176;2023-02-19T06:54:00;0.90;;;0.40;;
549;SDS011;20066;48.764;9.176;2023-02-19T06:56:29;0.93;;;0.50;;
549;SDS011;20066;48.764;9.176;2023-02-19T06:58:58;1.38;;;0.77;;
549;SDS011;20066;48.764;9.176;2023-02-19T07:01:27;1.08;;;0.60;;
549;SDS011;20066;48.764;9.176;2023-02-19T07:03:56;1.10;;;0.57;;
549;SDS011;20066;48.764;9.176;2023-02-19T07:06:25;6.45;;;0.90;;
549;SDS011;20066;48.764;9.176;2023-02-19T07:08:55;1.38;;;0.80;;
549;SDS011;20066;48.764;9.176;2023-02-19T07:11:24;1.35;;;0.70;;
549;SDS011;20066;48.764;9.176;2023-02-19T07:13:55;1.33;;;0.75;;
549;SDS011;20066;48.764;9.176;2023-02-19T07:16:23;1.85;;;0.68;;
549;SDS011;20066;48.764;9.176;2023-02-19T07:18:52;1.98;;;0.60;;
549;SDS011;20066;48.764;9.176;2023-02-19T07:21:21;1.17;;;0.60;;
549;SDS011;20066;48.764;9.176;2023-02-19T07:23:49;2.00;;;0.93;;
549;SDS011;20066;48.764;9.176;2023-02-19T07:26:19;2.65;;;0.80;;
549;SDS011;20066;48.764;9.176;2023-02-19T07:28:48;1.20;;;0.70;;
549;SDS011;20066;48.764;9.176;2023-02-19T07:31:18;1.13;;;0.57;;
549;SDS011;20066;48.764;9.176;2023-02-19T07:33:49;1.20;;;0.60;;
549;SDS011;20066;48.764;9.176;2023-02-19T07:36:17;3.08;;;0.95;;
549;SDS011;20066;48.764;9.176;2023-02-19T07:38:45;1.27;;;0.93;;
549;SDS011;20066;48.764;9.176;2023-02-19T07:41:14;1.42;;;0.80;;
549;SDS011;20066;48.764;9.176;2023-02-19T07:43:43;1.50;;;0.90;;
549;SDS011;20066;48.764;9.176;2023-02-19T07:46:12;1.35;;;1.02;;
549;SDS011;20066;48.764;9.176;2023-02-19T07:48:40;1.70;;;0.90;;
549;SDS011;20066;48.764;9.176;2023-02-19T07:51:10;1.38;;;0.90;;
549;SDS011;20066;48.764;9.176;2023-02-19T07:53:39;1.35;;;0.70;;
549;SDS011;20066;48.764;9.176;2023-02-19T07:56:07;2.85;;;0.90;;
549;SDS011;20066;48.764;9.176;2023-02-19T07:58:37;1.45;;;0.80;;
549;SDS011;20066;48.764;9.176;2023-02-19T08:01:08;1.85;;;1.10;;
549;SDS011;20066;48.764;9.176;2023-02-19T08:03:37;1.45;;;1.08;;
549;SDS011;20066;48.764;9.176;2023-02-19T08:06:05;1.27;;;0.90;;
549;SDS011;20066;48.764;9.176;2023-02-19T08:08:36;3.20;;;1.10;;
549;SDS011;20066;48.764;9.176;2023-02-19T08:11:05;1.83;;;1.10;;
549;SDS011;20066;48.764;9.176;2023-02-19T08:13:51;2.65;;;1.13;;
549;SDS011;20066;48.764;9.176;2023-02-19T08:16:21;1.60;;;0.90;;
549;SDS011;20066;48.764;9.176;2023-02-19T08:19:08;1.20;;;0.75;;
549;SDS011;20066;48.764;9.176;2023-02-19T08:21:36;3.20;;;0.90;;
549;SDS011;20066;48.764;9.176;2023-02-19T08:24:04;1.70;;;1.23;;
549;SDS011;20066;48.764;9.176;2023-02-19T08:26:33;2.17;;;0.70;;
549;SDS011;20066;48.764;9.176;2023-02-19T08:29:00;2.33;;;1.00;;
549;SDS011;20066;48.764;9.176;2023-02-19T08:31:30;1.75;;;0.93;;
549;SDS011;20066;48.764;9.176;2023-02-19T08:33:59;1.35;;;0.85;;
549;SDS011;20066;48.764;9.176;2023-02-19T08:36:27;1.10;;;0.70;;
549;SDS011;20066;48.764;9.176;2023-02-19T08:38:55;2.30;;;1.00;;
549;SDS011;20066;48.764;9.176;2023-02-19T08:41:23;1.75;;;1.00;;
549;SDS011;20066;48.764;9.176;2023-02-19T08:43:51;1.40;;;0.80;;
549;SDS011;20066;48.764;9.176;2023-02-19T08:46:19;1.30;;;0.60;;
549;SDS011;20066;48.764;9.176;2023-02-19T08:48:49;1.92;;;0.90;;
549;SDS011;20066;48.764;9.176;2023-02-19T08:51:17;1.63;;;0.80;;
549;SDS011;20066;48.764;9.176;2023-02-19T08:53:45;2.97;;;0.80;;
549;SDS011;20066;48.764;9.176;2023-02-19T08:56:14;1.45;;;0.80;;
549;SDS011;20066;48.764;9.176;2023-02-19T08:58:43;2.08;;;0.88;;
549;SDS011;20066;48.764;9.176;2023-02-19T09:01:12;1.63;;;0.80;;
549;SDS011;20066;48.764;9.176;2023-02-19T09:03:41;1.23;;;0.60;;
549;SDS011;20066;48.764;9.176;2023-02-19T09:06:16;1.33;;;0.70;;
549;SDS011;20066;48.764;9.176;2023-02-19T09:08:51;1.55;;;0.90;;
549;SDS011;20066;48.764;9.176;2023-02-19T09:13:50;1.20;;;0.70;;
549;SDS011;20066;48.764;9.176;2023-02-19T09:16:19;2.22;;;0.75;;
549;SDS011;20066;48.764;9.176;2023-02-19T09:18:49;1.85;;;1.00;;
549;SDS011;20066;48.764;9.176;2023-02-19T09:21:20;1.30;;;0.80;;
549;SDS011;20066;48.764;9.176;2023-02-19T09:23:48;1.70;;;1.05;;
549;SDS011;20066;48.764;9.176;2023-02-19T09:26:16;2.30;;;0.98;;
549;SDS011;20066;48.764;9.176;2023-02-19T09:28:44;5.03;;;1.27;;
549;SDS011;20066;48.764;9.176;2023-02-19T09:31:14;2.93;;;1.03;;
549;SDS011;20066;48.764;9.176;2023-02-19T09:33:42;3.05;;;1.30;;
549;SDS011;20066;48.764;9.176;2023-02-19T09:36:11;4.80;;;1.30;;
549;SDS011;20066;48.764;9.176;2023-02-19T09:38:41;2.00;;;1.20;;
549;SDS011;20066;48.764;9.176;2023-02-19T09:41:13;3.80;;;1.60;;
549;SDS011;20066;48.764;9.176;2023-02-19T09:43:48;4.35;;;1.40;;
549;SDS011;20066;48.764;9.176;2023-02-19T09:46:21;4.43;;;1.47;;
549;SDS011;20066;48.764;9.176;2023-02-19T09:48:54;4.43;;;1.20;;
549;SDS011;20066;48.764;9.176;2023-02-19T09:51:28;2.70;;;1.30;;
549;SDS011;20066;48.764;9.176;2023-02-19T09:54:01;2.13;;;0.90;;
549;SDS011;20066;48.764;9.176;2023-02-19T09:56:33;1.75;;;0.85;;
549;SDS011;20066;48.764;9.176;2023-02-19T09:59:01;2.67;;;1.10;;
549;SDS011;20066;48.764;9.176;2023-02-19T10:01:31;1.50;;;0.70;;
549;SDS011;20066;48.764;9.176;2023-02-19T10:04:04;6.23;;;1.13;;
549;SDS011;20066;48.764;9.176;2023-02-19T10:06:32;2.87;;;0.97;;
549;SDS011;20066;48.764;9.176;2023-02-19T10:09:10;1.90;;;0.90;;
549;SDS011;20066;48.764;9.176;2023-02-19T10:11:46;2.10;;;1.00;;
549;SDS011;20066;48.764;9.176;2023-02-19T10:14:16;4.95;;;1.40;;
549;SDS011;20066;48.764;9.176;2023-02-19T10:16:48;3.53;;;1.10;;
549;SDS011;20066;48.764;9.176;2023-02-19T10:19:16;2.20;;;0.83;;
549;SDS011;20066;48.764;9.176;2023-02-19T10:21:45;5.47;;;0.90;;
549;SDS011;20066;48.764;9.176;2023-02-19T10:24:15;4.03;;;1.05;;
549;SDS011;20066;48.764;9.176;2023-02-19T10:26:51;4.18;;;1.10;;
549;SDS011;20066;48.764;9.176;2023-02-19T10:29:19;2.95;;;1.08;;
549;SDS011;20066;48.764;9.176;2023-02-19T10:34:39;4.97;;;1.40;;
549;SDS011;20066;48.764;9.176;2023-02-19T10:37:08;2.03;;;0.80;;
549;SDS011;20066;48.764;9.176;2023-02-19T10:39:42;3.00;;;1.08;;
549;SDS011;20066;48.764;9.176;2023-02-19T10:42:13;2.30;;;0.80;;
549;SDS011;20066;48.764;9.176;2023-02-19T10:44:44;7.03;;;1.20;;
549;SDS011;20066;48.764;9.176;2023-02-19T10:47:14;1.60;;;1.00;;
549;SDS011;20066;48.764;9.176;2023-02-19T10:49:45;5.00;;;1.20;;
549;SDS011;20066;48.764;9.176;2023-02-19T10:52:16;2.37;;;0.90;;
549;SDS011;20066;48.764;9.176;2023-02-19T10:54:50;5.67;;;1.20;;
549;SDS011;20066;48.764;9.176;2023-02-19T10:57:24;4.20;;;1.23;;
549;SDS011;20066;48.764;9.176;2023-02-19T10:59:59;8.73;;;1.63;;
549;SDS011;20066;48.764;9.176;2023-02-19T11:02:29;3.33;;;1.20;;
549;SDS011;20066;48.764;9.176;2023-02-19T11:05:04;2.47;;;1.17;;
549;SDS011;20066;48.764;9.176;2023-02-19T11:07:45;2.80;;;1.20;;
549;SDS011;20066;48.764;9.176;2023-02-19T11:10:24;4.20;;;1.13;;
549;SDS011;20066;48.764;9.176;2023-02-19T11:12:55;1.60;;;0.80;;
549;SDS011;20066;48.764;9.176;2023-02-19T11:15:26;2.57;;;0.90;;
549;SDS011;20066;48.764;9.176;2023-02-19T11:17:56;2.43;;;1.00;;
549;SDS011;20066;48.764;9.176;2023-02-19T11:20:26;4.50;;;1.10;;
549;SDS011;20066;48.764;9.176;2023-02-19T11:22:58;2.90;;;0.97;;
549;SDS011;20066;48.764;9.176;2023-02-19T11:25:29;3.63;;;0.90;;
549;SDS011;20066;48.764;9.176;2023-02-19T11:27:59;5.03;;;1.83;;
549;SDS011;20066;48.764;9.176;2023-02-19T11:30:36;10.70;;;1.60;;
549;SDS011;20066;48.764;9.176;2023-02-19T11:33:18;6.90;;;1.23;;
549;SDS011;20066;48.764;9.176;2023-02-19T11:35:54;3.83;;;1.10;;
549;SDS011;20066;48.764;9.176;2023-02-19T11:38:27;5.83;;;0.93;;
549;SDS011;20066;48.764;9.176;2023-02-19T11:40:58;5.93;;;1.30;;
549;SDS011;20066;48.764;9.176;2023-02-19T11:43:39;4.13;;;1.40;;
549;SDS011;20066;48.764;9.176;2023-02-19T11:46:19;2.33;;;1.10;;
549;SDS011;20066;48.764;9.176;2023-02-19T11:48:59;3.37;;;1.10;;
549;SDS011;20066;48.764;9.176;2023-02-19T11:51:39;4.93;;;1.10;;
549;SDS011;20066;48.764;9.176;2023-02-19T11:54:32;5.60;;;1.33;;
549;SDS011;20066;48.764;9.176;2023-02-19T11:57:20;4.43;;;1.33;;
549;SDS011;20066;48.764;9.176;2023-02-19T12:00:03;2.40;;;1.00;;
549;SDS011;20066;48.764;9.176;2023-02-19T12:02:52;5.57;;;1.20;;
549;SDS011;20066;48.764;9.176;2023-02-19T12:05:39;3.20;;;1.30;;
549;SDS011;20066;48.764;9.176;2023-02-19T12:08:29;3.50;;;1.20;;
549;SDS011;20066;48.764;9.176;2023-02-19T12:11:19;8.03;;;1.17;;
549;SDS011;20066;48.764;9.176;2023-02-19T12:14:05;5.00;;;1.73;;
549;SDS011;20066;48.764;9.176;2023-02-19T12:16:49;2.20;;;1.00;;
549;SDS011;20066;48.764;9.176;2023-02-19T12:19:33;6.00;;;1.30;;
549;SDS011;20066;48.764;9.176;2023-02-19T12:22:15;2.80;;;1.10;;
549;SDS011;20066;48.764;9.176;2023-02-19T12:25:03;4.03;;;0.97;;
549;SDS011;20066;48.764;9.176;2023-02-19T12:27:46;4.00;;;0.97;;
549;SDS011;20066;48.764;9.176;2023-02-19T12:30:39;4.50;;;0.93;;
549;SDS011;20066;48.764;9.176;2023-02-19T12:33:46;4.27;;;1.00;;
549;SDS011;20066;48.764;9.176;2023-02-19T12:36:35;4.30;;;0.97;;
549;SDS011;20066;48.764;9.176;2023-02-19T12:39:12;3.37;;;0.90;;
549;SDS011;20066;48.764;9.176;2023-02-19T12:41:49;2.70;;;1.00;;
549;SDS011;20066;48.764;9.176;2023-02-19T12:44:30;2.20;;;1.10;;
549;SDS011;20066;48.764;9.176;2023-02-19T12:47:06;4.73;;;1.20;;
549;SDS011;20066;48.764;9.176;2023-02-19T12:49:43;2.30;;;0.90;;
549;SDS011;20066;48.764;9.176;2023-02-19T12:52:17;12.87;;;1.30;;
549;SDS011;20066;48.764;9.176;2023-02-19T12:54:48;4.53;;;1.27;;
549;SDS011;20066;48.764;9.176;2023-02-19T12:57:21;2.00;;;1.10;;
549;SDS011;20066;48.764;9.176;2023-02-19T12:59:52;4.30;;;1.30;;
549;SDS011;20066;48.764;9.176;2023-02-19T13:02:32;2.10;;;0.90;;
549;SDS011;20066;48.764;9.176;2023-02-19T13:05:07;4.20;;;1.10;;
549;SDS011;20066;48.764;9.176;2023-02-19T13:07:44;5.23;;;1.00;;
549;SDS011;20066;48.764;9.176;2023-02-19T13:10:24;2.47;;;1.07;;
549;SDS011;20066;48.764;9.176;2023-02-19T13:12:57;2.33;;;0.83;;
549;SDS011;20066;48.764;9.176;2023-02-19T13:15:30;2.57;;;1.00;;
549;SDS011;20066;48.764;9.176;2023-02-19T13:18:03;2.47;;;1.20;;
549;SDS011;20066;48.764;9.176;2023-02-19T13:20:37;7.30;;;1.30;;
549;SDS011;20066;48.764;9.176;2023-02-19T13:23:10;4.40;;;1.20;;
549;SDS011;20066;48.764;9.176;2023-02-19T13:26:06;4.00;;;1.10;;
549;SDS011;20066;48.764;9.176;2023-02-19T13:28:47;1.93;;;1.10;;
549;SDS011;20066;48.764;9.176;2023-02-19T13:31:29;3.93;;;1.10;;
549;SDS011;20066;48.764;9.176;2023-02-19T13:34:12;3.67;;;1.03;;
549;SDS011;20066;48.764;9.176;2023-02-19T13:36:53;2.43;;;0.93;;
549;SDS011;20066;48.764;9.176;2023-02-19T13:39:21;3.27;;;1.47;;
549;SDS011;20066;48.764;9.176;2023-02-19T13:41:50;3.80;;;1.20;;
549;SDS011;20066;48.764;9.176;2023-02-19T13:44:20;2.80;;;1.10;;
549;SDS011;20066;48.764;9.176;2023-02-19T13:46:52;3.93;;;1.10;;
549;SDS011;20066;48.764;9.176;2023-02-19T14:01:19;4.00;;;0.97;;
549;SDS011;20066;48.764;9.176;2023-02-19T14:04:39;3.77;;;1.17;;
549;SDS011;20066;48.764;9.176;2023-02-19T14:19:44;4.37;;;1.53;;
549;SDS011;20066;48.764;9.176;2023-02-19T14:25:37;4.70;;;1.10;;
549;SDS011;20066;48.764;9.176;2023-02-19T14:28:20;2.90;;;1.13;;
549;SDS011;20066;48.764;9.176;2023-02-19T14:30:54;4.60;;;1.20;;
549;SDS011;20066;48.764;9.176;2023-02-19T14:33:24;1.60;;;0.80;;
549;SDS011;20066;48.764;9.176;2023-02-19T14:35:55;3.47;;;1.30;;
549;SDS011;20066;48.764;9.176;2023-02-19T14:38:27;4.83;;;1.17;;
549;SDS011;20066;48.764;9.176;2023-02-19T14:41:02;2.40;;;1.20;;
549;SDS011;20066;48.764;9.176;2023-02-19T14:43:31;3.37;;;1.17;;
549;SDS011;20066;48.764;9.176;2023-02-19T14:46:02;3.10;;;1.47;;
549;SDS011;20066;48.764;9.176;2023-02-19T14:48:36;8.10;;;1.40;;
549;SDS011;20066;48.764;9.176;2023-02-19T14:51:12;6.47;;;1.03;;
549;SDS011;20066;48.764;9.176;2023-02-19T14:53:49;4.43;;;1.23;;
549;SDS011;20066;48.764;9.176;2023-02-19T14:56:20;3.90;;;1.10;;
549;SDS011;20066;48.764;9.176;2023-02-19T14:59:05;5.57;;;1.10;;
549;SDS011;20066;48.764;9.176;2023-02-19T15:01:35;6.27;;;1.27;;
549;SDS011;20066;48.764;9.176;2023-02-19T15:04:03;4.30;;;1.40;;
549;SDS011;20066;48.764;9.176;2023-02-19T15:06:32;4.70;;;1.43;;
549;SDS011;20066;48.764;9.176;2023-02-19T15:09:02;3.00;;;1.17;;
549;SDS011;20066;48.764;9.176;2023-02-19T15:11:34;4.37;;;1.57;;
549;SDS011;20066;48.764;9.176;2023-02-19T15:14:04;4.57;;;1.23;;
549;SDS011;20066;48.764;9.176;2023-02-19T15:16:33;4.87;;;1.47;;
549;SDS011;20066;48.764;9.176;2023-02-19T15:19:04;5.07;;;1.47;;
549;SDS011;20066;48.764;9.176;2023-02-19T15:21:35;6.33;;;1.50;;
549;SDS011;20066;48.764;9.176;2023-02-19T15:24:06;4.30;;;1.03;;
549;SDS011;20066;48.764;9.176;2023-02-19T15:26:36;2.97;;;1.33;;
549;SDS011;20066;48.764;9.176;2023-02-19T15:29:08;2.70;;;1.20;;
549;SDS011;20066;48.764;9.176;2023-02-19T15:31:43;4.50;;;1.43;;
549;SDS011;20066;48.764;9.176;2023-02-19T15:34:15;5.90;;;1.50;;
549;SDS011;20066;48.764;9.176;2023-02-19T15:36:44;3.23;;;1.30;;
549;SDS011;20066;48.764;9.176;2023-02-19T15:39:15;2.13;;;1.07;;
549;SDS011;20066;48.764;9.176;2023-02-19T15:41:56;3.03;;;1.30;;
549;SDS011;20066;48.764;9.176;2023-02-19T15:44:27;2.77;;;1.43;;
549;SDS011;20066;48.764;9.176;2023-02-19T15:47:03;3.50;;;1.23;;
549;SDS011;20066;48.764;9.176;2023-02-19T15:49:40;4.83;;;1.60;;
549;SDS011;20066;48.764;9.176;2023-02-19T15:52:16;2.30;;;1.30;;
549;SDS011;20066;48.764;9.176;2023-02-19T15:54:52;6.80;;;1.70;;
549;SDS011;20066;48.764;9.176;2023-02-19T15:57:28;4.33;;;1.40;;
549;SDS011;20066;48.764;9.176;2023-02-19T16:00:02;5.30;;;1.60;;
549;SDS011;20066;48.764;9.176;2023-02-19T16:02:39;4.95;;;1.50;;
549;SDS011;20066;48.764;9.176;2023-02-19T16:05:12;7.57;;;1.88;;
549;SDS011;20066;48.764;9.176;2023-02-19T16:07:41;6.37;;;1.67;;
549;SDS011;20066;48.764;9.176;2023-02-19T16:10:19;7.00;;;1.80;;
549;SDS011;20066;48.764;9.176;2023-02-19T16:12:56;6.70;;;1.90;;
549;SDS011;20066;48.764;9.176;2023-02-19T16:15:52;8.57;;;2.00;;
549;SDS011;20066;48.764;9.176;2023-02-19T16:18:47;3.77;;;1.23;;
549;SDS011;20066;48.764;9.176;2023-02-19T16:21:32;4.75;;;1.60;;
549;SDS011;20066;48.764;9.176;2023-02-19T16:24:22;5.32;;;1.50;;
549;SDS011;20066;48.764;9.176;2023-02-19T16:27:10;3.13;;;1.37;;
549;SDS011;20066;48.764;9.176;2023-02-19T16:30:27;6.17;;;1.63;;